Time;durP1;ratioP1;P1;durP2;ratioP2;P2;SDS_P1;SDS_P2;PMS_P1;PMS_P2;Temp;Humidity;BMP_temperature;BMP_pressure;BME280_temperature;BME280_humidity;BME280_pressure;Samples;Min_cycle;Max_cycle;Signal;HPM_P1;HPM_P2
2021/11/26 00:02:38;;;;;;;33.70;18.80;;;;;;;4.55;75.77;97692.72;214940;1322;22630;-76
2021/11/26 00:07:40;;;;;;;35.40;20.00;;;;;;;4.59;75.62;97693.22;214692;1321;22607;-76
2021/11/26 00:12:51;;;;;;;32.40;19.20;;;;;;;4.69;75.99;97685.36;215258;1315;22662;-75
2021/11/26 00:18:05;;;;;;;;;;;;;;;4.77;75.87;97688.11;214971;1318;22581;-75
2021/11/26 00:23:20;;;;;;;30.60;17.70;;;;;;;4.76;75.67;97681.00;215150;1321;22799;-76
2021/11/26 00:28:22;;;;;;;31.20;18.40;;;;;;;4.74;75.50;97681.39;214727;1316;22636;-76
2021/11/26 00:33:33;;;;;;;33.70;20.40;;;;;;;4.75;75.77;97678.52;214976;1317;22589;-75
2021/11/26 00:38:36;;;;;;;32.00;19.70;;;;;;;4.80;75.62;97672.75;214909;1320;23518;-76
2021/11/26 00:43:38;;;;;;;32.50;19.50;;;;;;;4.79;75.41;97675.40;214704;1324;23560;-77
2021/11/26 00:48:40;;;;;;;34.70;19.90;;;;;;;4.78;75.16;97670.65;215028;1322;22770;-75
2021/11/26 00:53:43;;;;;;;36.80;19.40;;;;;;;4.71;75.30;97660.41;214808;1324;25363;-76
2021/11/26 00:58:45;;;;;;;35.90;19.80;;;;;;;4.66;75.31;97658.64;214871;1322;22741;-76
2021/11/26 01:03:55;;;;;;;33.90;20.60;;;;;;;4.66;75.28;97650.61;214978;1320;22591;-75
2021/11/26 01:09:01;;;;;;;28.90;18.80;;;;;;;4.65;75.41;97643.20;215101;1316;22590;-76
2021/11/26 01:14:05;;;;;;;34.60;20.30;;;;;;;4.58;75.29;97636.25;214806;1322;22614;-76
2021/11/26 01:19:07;;;;;;;34.40;19.20;;;;;;;4.51;75.20;97626.55;214652;1320;25383;-76
2021/11/26 01:24:09;;;;;;;35.10;20.20;;;;;;;4.49;75.23;97625.51;214873;1317;22666;-76
2021/11/26 01:29:11;;;;;;;33.70;20.40;;;;;;;4.51;75.24;97629.89;215049;1321;22544;-77
2021/11/26 01:34:13;;;;;;;36.20;19.70;;;;;;;4.44;75.35;97623.46;214791;1322;23268;-77
2021/11/26 01:39:15;;;;;;;37.30;20.40;;;;;;;4.38;75.33;97618.73;214058;1323;24404;-76
2021/11/26 01:44:24;;;;;;;32.00;18.70;;;;;;;4.42;75.75;97603.64;214967;1322;24674;-77
2021/11/26 01:49:26;;;;;;;34.10;19.20;;;;;;;4.48;75.79;97602.80;214810;1322;22625;-77
2021/11/26 01:54:28;;;;;;;36.30;19.60;;;;;;;4.44;75.52;97606.50;214783;1322;24337;-77
2021/11/26 01:59:31;;;;;;;31.40;18.20;;;;;;;4.45;75.68;97612.52;214828;1320;25480;-77
2021/11/26 02:04:33;;;;;;;32.70;18.60;;;;;;;4.50;75.68;97610.69;214864;1316;25946;-76
2021/11/26 02:09:35;;;;;;;30.70;18.30;;;;;;;4.49;75.61;97584.45;215096;1322;22566;-76
2021/11/26 02:14:37;;;;;;;41.80;21.40;;;;;;;4.44;75.38;97570.59;214976;1320;22743;-76
2021/11/26 02:19:42;;;;;;;36.80;21.50;;;;;;;4.39;74.93;97571.10;214515;1324;23486;-76
2021/11/26 02:24:44;;;;;;;39.70;22.00;;;;;;;4.39;75.19;97563.04;215040;1322;25243;-76
2021/11/26 02:29:55;;;;;;;38.20;22.40;;;;;;;4.35;75.14;97556.55;214732;1325;23094;-76
2021/11/26 02:34:57;;;;;;;37.20;21.40;;;;;;;4.26;74.89;97551.90;215063;1322;23794;-75
2021/11/26 02:39:59;;;;;;;38.70;21.30;;;;;;;4.14;74.65;97545.27;214945;1321;24992;-76
2021/11/26 02:45:02;;;;;;;38.30;22.10;;;;;;;4.02;74.49;97547.14;215241;1321;24317;-76
2021/11/26 02:50:07;;;;;;;39.10;22.40;;;;;;;3.96;74.45;97541.45;215535;1322;24455;-76
2021/11/26 02:55:12;;;;;;;33.30;20.10;;;;;;;3.88;74.57;97537.10;215100;1322;23815;-76
2021/11/26 03:00:18;;;;;;;34.80;20.80;;;;;;;3.85;74.71;97540.05;215208;1321;22765;-76
2021/11/26 03:05:21;;;;;;;35.20;19.50;;;;;;;3.80;74.29;97541.48;214807;1325;22912;-76
2021/11/26 03:10:25;;;;;;;37.10;19.80;;;;;;;3.73;73.95;97546.63;215104;1322;22647;-76
2021/11/26 03:15:28;;;;;;;34.60;19.60;;;;;;;3.70;73.91;97538.75;215217;1322;23138;-76
2021/11/26 03:20:31;;;;;;;35.30;20.70;;;;;;;3.68;73.82;97522.23;215164;1319;22650;-76
2021/11/26 03:25:33;;;;;;;38.80;21.10;;;;;;;3.62;73.73;97515.05;215028;1319;24277;-76
2021/11/26 03:30:35;;;;;;;37.00;20.70;;;;;;;3.53;73.57;97499.48;215046;1322;23304;-76
2021/11/26 03:35:38;;;;;;;38.20;20.40;;;;;;;3.47;73.45;97491.85;214459;1324;22984;-76
2021/11/26 03:40:40;;;;;;;42.50;21.70;;;;;;;3.41;73.42;97493.09;214433;1323;22635;-76
2021/11/26 03:45:42;;;;;;;43.30;22.60;;;;;;;3.36;73.49;97494.96;214761;1322;22695;-75
2021/11/26 03:50:44;;;;;;;38.20;21.00;;;;;;;3.26;73.46;97488.77;214741;1320;22889;-76
2021/11/26 03:55:46;;;;;;;41.00;21.90;;;;;;;3.19;73.42;97486.03;215152;1321;22572;-76
2021/11/26 04:00:48;;;;;;;38.40;21.20;;;;;;;3.19;73.49;97480.38;214594;1322;22542;-76
2021/11/26 04:05:51;;;;;;;44.00;23.90;;;;;;;3.17;73.32;97477.90;215070;1322;24384;-76
2021/11/26 04:10:53;;;;;;;35.60;20.60;;;;;;;3.09;73.16;97481.05;214798;1323;24006;-76
2021/11/26 04:16:02;;;;;;;36.40;21.10;;;;;;;3.00;72.99;97484.73;214989;1322;22708;-77
2021/11/26 04:21:04;;;;;;;36.50;19.70;;;;;;;2.94;72.92;97482.70;214818;1321;25925;-76
2021/11/26 04:26:06;;;;;;;37.00;18.90;;;;;;;2.96;73.05;97462.91;214942;1321;23015;-77
2021/11/26 04:31:08;;;;;;;31.20;19.50;;;;;;;2.97;72.95;97447.94;214662;1318;25357;-76
2021/11/26 04:36:14;;;;;;;31.10;18.10;;;;;;;2.95;72.96;97437.36;215006;1316;22669;-76
2021/11/26 04:41:16;;;;;;;39.20;20.10;;;;;;;2.90;72.63;97417.85;214791;1317;22582;-76
2021/11/26 04:46:18;;;;;;;38.60;21.20;;;;;;;2.85;72.69;97424.26;215232;1320;23871;-76
2021/11/26 04:51:20;;;;;;;36.00;20.40;;;;;;;2.89;72.99;97432.13;215093;1316;22516;-76
2021/11/26 04:56:22;;;;;;;33.70;19.80;;;;;;;2.94;73.03;97430.00;215265;1321;23120;-76
2021/11/26 05:01:37;;;;;;;34.10;18.80;;;;;;;2.98;73.00;97432.31;215057;1321;22542;-76
2021/11/26 05:06:41;;;;;;;37.30;20.60;;;;;;;3.01;72.92;97429.13;214347;1317;22770;-75
2021/11/26 05:11:44;;;;;;;41.90;20.30;;;;;;;3.00;72.81;97416.23;207237;1319;10354533;-75
2021/11/26 05:16:47;;;;;;;46.90;24.00;;;;;;;3.00;72.73;97403.89;215145;1319;22718;-75
2021/11/26 05:21:49;;;;;;;43.20;23.00;;;;;;;3.05;72.76;97418.14;214778;1319;22933;-76
2021/11/26 05:26:55;;;;;;;46.10;23.60;;;;;;;3.07;72.76;97415.07;214501;1319;24233;-76
2021/11/26 05:31:59;;;;;;;38.60;22.20;;;;;;;3.06;72.55;97413.97;214919;1321;22661;-76
2021/11/26 05:37:02;;;;;;;41.00;21.40;;;;;;;3.02;72.56;97410.54;214886;1321;22595;-76
2021/11/26 05:42:04;;;;;;;42.20;22.20;;;;;;;3.02;72.57;97400.92;214580;1322;23017;-77
2021/11/26 05:47:06;;;;;;;44.50;22.50;;;;;;;3.05;72.68;97392.61;214766;1316;22869;-76
2021/11/26 05:52:08;;;;;;;34.80;18.80;;;;;;;3.11;72.81;97388.70;214203;1324;23714;-76
2021/11/26 05:57:10;;;;;;;35.10;20.10;;;;;;;3.13;72.62;97399.64;214955;1321;22576;-77
2021/11/26 06:02:26;;;;;;;39.40;21.10;;;;;;;3.07;72.44;97396.66;215090;1319;22625;-77
2021/11/26 06:07:28;;;;;;;40.50;21.80;;;;;;;3.08;72.57;97391.67;214592;1319;23164;-77
2021/11/26 06:12:30;;;;;;;34.40;20.10;;;;;;;3.12;72.63;97394.84;214942;1324;22533;-76
2021/11/26 06:17:33;;;;;;;40.00;20.80;;;;;;;3.11;72.41;97385.79;214643;1322;24213;-76
2021/11/26 06:22:35;;;;;;;38.10;21.40;;;;;;;3.08;72.53;97378.77;214816;1320;23198;-77
2021/11/26 06:27:37;;;;;;;43.50;22.40;;;;;;;3.10;72.64;97367.00;215096;1319;23928;-77
2021/11/26 06:32:44;;;;;;;50.20;26.00;;;;;;;3.12;72.62;97357.47;214643;1322;22658;-77
2021/11/26 06:37:48;;;;;;;51.00;25.50;;;;;;;3.13;72.58;97362.59;214897;1322;22623;-76
2021/11/26 06:42:51;;;;;;;50.30;25.20;;;;;;;3.12;72.54;97374.83;215659;1316;23101;-77
2021/11/26 06:47:53;;;;;;;52.20;26.20;;;;;;;3.17;72.68;97366.39;215871;1316;22994;-77
2021/11/26 06:52:55;;;;;;;46.30;26.30;;;;;;;3.22;72.76;97375.72;215618;1316;22749;-76
2021/11/26 06:57:58;;;;;;;44.00;24.10;;;;;;;3.28;72.90;97364.30;215419;1316;22657;-77
2021/11/26 07:03:01;;;;;;;45.30;22.30;;;;;;;3.28;72.74;97367.42;216016;1315;22775;-77
2021/11/26 07:08:03;;;;;;;39.10;22.20;;;;;;;3.23;72.64;97364.86;216006;1316;26033;-77
2021/11/26 07:13:07;;;;;;;36.60;21.40;;;;;;;3.23;72.72;97360.10;216096;1315;22592;-77
2021/11/26 07:18:09;;;;;;;47.50;25.20;;;;;;;3.24;72.70;97361.36;215839;1316;22598;-77
2021/11/26 07:23:25;;;;;;;39.10;22.40;;;;;;;3.24;72.64;97358.61;215748;1315;23353;-76
2021/11/26 07:28:34;;;;;;;39.40;22.00;;;;;;;3.26;72.72;97351.66;215862;1314;22736;-76
2021/11/26 07:33:36;;;;;;;44.00;23.20;;;;;;;3.32;72.73;97356.59;215526;1316;25070;-76
2021/11/26 07:38:43;;;;;;;44.40;24.40;;;;;;;3.36;72.82;97355.94;215446;1315;24864;-76
2021/11/26 07:43:58;;;;;;;39.30;21.90;;;;;;;3.40;72.92;97359.24;215277;1315;22611;-74
2021/11/26 07:49:08;;;;;;;45.80;23.50;;;;;;;3.40;72.70;97351.93;215465;1315;25873;-76
2021/11/26 07:54:10;;;;;;;44.10;24.40;;;;;;;3.39;72.43;97345.70;215567;1315;22574;-77
2021/11/26 07:59:12;;;;;;;43.90;24.80;;;;;;;3.40;72.45;97340.28;215463;1315;22776;-76
2021/11/26 08:04:15;;;;;;;44.10;24.50;;;;;;;3.43;72.66;97340.90;215749;1316;25271;-77
2021/11/26 08:09:19;;;;;;;50.90;25.90;;;;;;;3.39;72.82;97337.33;216117;1315;23373;-76
2021/11/26 08:14:22;;;;;;;53.50;26.00;;;;;;;3.37;72.92;97321.56;215709;1315;24263;-77
2021/11/26 08:19:38;;;;;;;47.30;26.50;;;;;;;3.46;73.25;97307.20;215316;1318;25435;-77
2021/11/26 08:24:55;;;;;;;47.20;24.70;;;;;;;3.59;73.30;97293.11;215450;1317;22773;-76
2021/11/26 08:30:10;;;;;;;54.40;26.10;;;;;;;3.63;73.24;97287.78;215156;1318;22540;-76
2021/11/26 08:35:12;;;;;;;49.10;27.30;;;;;;;3.66;73.27;97284.56;215533;1315;22724;-76
2021/11/26 08:40:16;;;;;;;57.50;30.10;;;;;;;3.62;73.35;97278.05;215436;1316;23315;-76
2021/11/26 08:45:19;;;;;;;62.40;30.90;;;;;;;3.55;73.59;97262.96;215504;1315;22717;-76
2021/11/26 08:50:22;;;;;;;61.60;30.90;;;;;;;3.58;73.87;97250.06;215657;1315;25362;-77
2021/11/26 08:55:28;;;;;;;59.40;31.10;;;;;;;3.69;73.84;97235.27;215843;1316;23098;-77
2021/11/26 09:00:34;;;;;;;70.60;35.30;;;;;;;3.75;74.09;97232.20;215638;1316;23546;-77
2021/11/26 09:05:37;;;;;;;59.60;31.40;;;;;;;3.79;74.07;97231.58;215642;1316;22739;-76
2021/11/26 09:10:41;;;;;;;67.50;32.40;;;;;;;3.77;73.90;97226.98;215450;1316;22642;-75
2021/11/26 09:15:44;;;;;;;70.00;34.30;;;;;;;3.79;73.89;97220.77;216107;1315;22614;-76
2021/11/26 09:20:50;;;;;;;73.60;35.10;;;;;;;3.86;74.22;97218.90;215844;1315;24960;-75
2021/11/26 09:25:52;;;;;;;62.80;33.60;;;;;;;3.92;74.33;97206.42;215521;1316;22901;-75
2021/11/26 09:30:54;;;;;;;67.90;34.90;;;;;;;3.87;74.41;97199.00;215791;1318;22593;-75
2021/11/26 09:35:56;;;;;;;71.40;35.40;;;;;;;3.77;74.56;97193.83;215454;1316;22563;-75
2021/11/26 09:41:00;;;;;;;66.20;34.20;;;;;;;3.69;74.96;97186.23;215660;1315;22865;-76
2021/11/26 09:46:05;;;;;;;67.00;33.40;;;;;;;3.63;75.35;97180.80;215681;1315;22519;-76
2021/11/26 09:51:07;;;;;;;67.70;35.10;;;;;;;3.56;75.58;97172.98;215470;1316;25246;-78
2021/11/26 09:56:10;;;;;;;62.10;32.30;;;;;;;3.47;75.90;97161.31;215798;1315;25502;-77
2021/11/26 10:01:14;;;;;;;65.20;33.20;;;;;;;3.39;76.08;97154.79;215168;1318;22742;-77
2021/11/26 10:06:36;;;;;;;65.20;32.80;;;;;;;3.36;76.42;97151.48;215281;1317;22753;-78
2021/11/26 10:12:04;;;;;;;59.40;30.80;;;;;;;3.38;76.70;97138.44;215580;1315;24432;-77
2021/11/26 10:17:13;;;;;;;62.10;32.20;;;;;;;3.42;76.84;97135.67;215744;1315;23307;-78
2021/11/26 10:22:39;;;;;;;62.20;31.40;;;;;;;3.41;77.01;97129.23;215711;1315;22722;-77
2021/11/26 10:27:56;;;;;;;75.20;37.10;;;;;;;3.31;77.01;97124.75;215609;1316;24025;-78
2021/11/26 10:33:09;;;;;;;73.80;36.60;;;;;;;3.20;77.14;97117.61;215881;1315;22658;-78
2021/11/26 10:38:20;;;;;;;66.20;33.10;;;;;;;3.12;77.30;97099.70;215839;1314;23178;-79
2021/11/26 10:59:36;;;;;;;73.30;34.40;;;;;;;3.00;78.28;97048.96;215621;1316;23395;-76
2021/11/26 11:04:39;;;;;;;74.10;35.40;;;;;;;3.01;78.75;97037.80;215241;1315;22630;-76
2021/11/26 11:09:47;;;;;;;76.60;37.00;;;;;;;3.07;79.14;97028.52;215142;1316;24444;-75
2021/11/26 11:15:08;;;;;;;80.30;37.60;;;;;;;3.11;79.10;97016.32;215636;1315;22526;-75
2021/11/26 11:20:24;;;;;;;67.00;34.60;;;;;;;3.08;79.23;97005.13;215727;1315;22609;-75
2021/11/26 11:25:29;;;;;;;66.20;32.90;;;;;;;3.03;79.42;96990.85;215060;1315;22582;-76
2021/11/26 11:30:39;;;;;;;66.60;32.80;;;;;;;3.00;79.70;96979.40;215289;1317;24222;-76
2021/11/26 11:35:46;;;;;;;80.50;39.10;;;;;;;2.95;79.90;96967.14;215559;1315;22825;-76
2021/11/26 11:41:01;;;;;;;89.20;41.90;;;;;;;2.95;80.04;96956.18;215144;1317;22778;-75
2021/11/26 11:46:06;;;;;;;96.10;53.60;;;;;;;3.06;81.01;96945.89;215611;1316;24190;-75
2021/11/26 11:51:28;;;;;;;88.20;45.50;;;;;;;3.36;82.04;96935.77;215432;1315;22652;-76
2021/11/26 11:56:45;;;;;;;79.30;39.10;;;;;;;3.38;80.93;96925.51;215705;1316;23234;-75
2021/11/26 12:01:48;;;;;;;82.90;40.70;;;;;;;3.33;80.70;96911.55;215276;1318;22569;-75
2021/11/26 12:06:53;;;;;;;79.30;39.70;;;;;;;3.33;80.74;96901.61;215633;1316;22756;-76
2021/11/26 12:12:07;;;;;;;81.00;40.70;;;;;;;3.33;80.86;96893.39;215371;1318;22757;-76
2021/11/26 12:17:33;;;;;;;65.30;33.40;;;;;;;3.36;81.05;96882.35;215402;1316;24264;-77
2021/11/26 12:22:40;;;;;;;65.40;36.60;;;;;;;3.36;80.84;96871.55;214936;1318;22631;-76
2021/11/26 12:27:42;;;;;;;49.70;27.30;;;;;;;3.35;81.07;96861.98;215411;1316;22775;-76
2021/11/26 12:32:46;;;;;;;57.20;32.20;;;;;;;3.30;80.75;96852.42;215258;1317;22893;-75
2021/11/26 12:37:56;;;;;;;60.10;33.50;;;;;;;3.23;80.97;96850.45;215750;1315;22630;-79
2021/11/26 12:43:01;;;;;;;58.10;31.50;;;;;;;3.22;80.96;96850.16;215419;1315;24305;-78
2021/11/26 12:48:09;;;;;;;62.70;33.30;;;;;;;3.20;81.15;96847.38;215446;1315;22715;-78
2021/11/26 12:53:16;;;;;;;55.30;31.60;;;;;;;3.21;81.29;96847.84;215327;1318;25432;-78
2021/11/26 12:58:19;;;;;;;64.70;33.00;;;;;;;3.15;81.22;96839.63;215137;1316;22549;-78
2021/11/26 13:03:22;;;;;;;66.00;35.40;;;;;;;3.10;81.33;96827.94;215373;1315;22510;-78
2021/11/26 13:08:24;;;;;;;57.80;32.00;;;;;;;3.10;81.50;96817.68;212902;1316;3538623;-78
2021/11/26 13:13:27;;;;;;;60.00;35.60;;;;;;;3.05;81.45;96815.42;215368;1316;22503;-77
2021/11/26 13:18:30;;;;;;;75.60;40.60;;;;;;;3.04;81.86;96810.68;214873;1318;22504;-78
2021/11/26 13:23:34;;;;;;;55.70;30.90;;;;;;;2.99;81.85;96802.49;215094;1322;22719;-76
2021/11/26 13:28:39;;;;;;;89.60;45.10;;;;;;;2.90;81.75;96794.79;215746;1316;22592;-76
2021/11/26 13:33:53;;;;;;;84.90;45.40;;;;;;;2.86;81.96;96790.15;215322;1317;22607;-76
2021/11/26 13:39:14;;;;;;;84.20;43.40;;;;;;;2.83;82.12;96785.96;215523;1320;25445;-75
2021/11/26 13:44:24;;;;;;;78.40;42.30;;;;;;;2.75;82.08;96778.10;215545;1322;22615;-75
2021/11/26 13:49:28;;;;;;;90.00;45.40;;;;;;;2.64;82.08;96773.54;215085;1316;25356;-75
2021/11/26 13:54:34;;;;;;;100.70;49.90;;;;;;;2.55;82.24;96759.96;215198;1315;24209;-76
2021/11/26 13:59:40;;;;;;;109.00;52.30;;;;;;;2.42;82.13;96749.70;215819;1315;22519;-79
2021/11/26 14:04:51;;;;;;;88.80;44.70;;;;;;;2.32;82.50;96745.57;216878;1319;22741;-80
2021/11/26 14:10:14;;;;;;;105.50;50.70;;;;;;;2.17;82.61;96733.29;216363;1314;22807;-79
2021/11/26 14:15:36;;;;;;;99.30;46.50;;;;;;;2.04;82.85;96729.64;216592;1321;22505;-80
2021/11/26 14:20:40;;;;;;;102.50;50.50;;;;;;;1.95;82.97;96725.77;216970;1320;22664;-80
2021/11/26 14:25:42;;;;;;;100.80;50.00;;;;;;;1.86;83.10;96718.92;216744;1319;22611;-80
2021/11/26 14:30:47;;;;;;;94.30;45.50;;;;;;;1.75;83.25;96713.90;216434;1322;22677;-80
2021/11/26 14:35:52;;;;;;;92.60;45.60;;;;;;;1.65;83.34;96707.96;216793;1320;22608;-80
2021/11/26 14:41:00;;;;;;;109.40;51.70;;;;;;;1.52;83.39;96696.75;217056;1321;22570;-79
2021/11/26 14:46:08;;;;;;;102.80;48.30;;;;;;;1.42;83.58;96693.58;215643;1322;22605;-77
2021/11/26 14:51:30;;;;;;;109.00;48.70;;;;;;;1.39;84.16;96683.52;215149;1315;24167;-77
2021/11/26 14:56:35;;;;;;;102.00;44.50;;;;;;;1.34;84.07;96674.70;215661;1319;22635;-79
2021/11/26 15:01:41;;;;;;;97.10;43.40;;;;;;;1.30;84.25;96670.95;216396;1315;23277;-78
2021/11/26 15:06:47;;;;;;;87.80;40.30;;;;;;;1.25;84.27;96653.53;216014;1315;24276;-78
2021/11/26 15:12:03;;;;;;;96.60;42.10;;;;;;;1.21;84.50;96646.25;215405;1315;24020;-78
2021/11/26 15:17:24;;;;;;;97.00;43.90;;;;;;;1.20;84.74;96634.38;215410;1315;23014;-78
2021/11/26 15:22:26;;;;;;;94.60;42.80;;;;;;;1.21;84.94;96629.21;215050;1316;24176;-78
2021/11/26 15:27:29;;;;;;;86.50;40.90;;;;;;;1.19;85.11;96616.15;215195;1315;24260;-77
2021/11/26 15:32:32;;;;;;;84.00;39.00;;;;;;;1.15;85.11;96607.69;215552;1315;23145;-78
2021/11/26 15:37:43;;;;;;;84.00;39.90;;;;;;;1.10;85.14;96599.31;215843;1315;23473;-78
2021/11/26 15:42:46;;;;;;;88.10;40.00;;;;;;;1.07;85.28;96587.85;215675;1316;23095;-79
2021/11/26 15:47:49;;;;;;;82.10;37.30;;;;;;;1.04;85.47;96581.50;216150;1316;22614;-79
2021/11/26 15:52:52;;;;;;;81.30;35.50;;;;;;;1.01;85.48;96567.92;215882;1315;22617;-79
2021/11/26 15:57:55;;;;;;;84.10;37.50;;;;;;;0.99;85.55;96558.45;215843;1315;22609;-78
2021/11/26 16:02:58;;;;;;;83.20;40.20;;;;;;;0.97;86.04;96547.19;215893;1315;22745;-79
2021/11/26 16:08:00;;;;;;;86.20;39.70;;;;;;;0.95;86.17;96547.46;215795;1316;22587;-79
2021/11/26 16:13:24;;;;;;;82.60;37.30;;;;;;;0.94;86.26;96539.46;215464;1321;25322;-79
2021/11/26 16:18:28;;;;;;;82.90;38.50;;;;;;;0.93;86.47;96531.20;215679;1322;22721;-80
2021/11/26 16:23:31;;;;;;;79.50;38.40;;;;;;;0.92;86.15;96524.98;215934;1321;22530;-78
2021/11/26 16:28:33;;;;;;;83.30;39.40;;;;;;;0.93;86.50;96519.35;215492;1316;24276;-79
2021/11/26 16:33:44;;;;;;;84.40;39.80;;;;;;;0.93;86.74;96512.80;215333;1316;22608;-79
2021/11/26 16:38:46;;;;;;;85.90;39.70;;;;;;;0.92;86.63;96504.16;215818;1322;22712;-79
2021/11/26 16:43:49;;;;;;;85.40;38.70;;;;;;;0.91;86.77;96502.02;216062;1321;22599;-79
2021/11/26 16:49:14;;;;;;;85.50;39.60;;;;;;;0.92;87.25;96502.30;216151;1324;24293;-79
2021/11/26 16:54:23;;;;;;;80.40;37.70;;;;;;;0.94;87.19;96501.82;217354;1316;22676;-80
2021/11/26 16:59:45;;;;;;;84.80;38.00;;;;;;;0.95;87.20;96500.75;215270;1320;22662;-79
2021/11/26 17:04:47;;;;;;;84.40;40.20;;;;;;;0.98;87.32;96491.39;215661;1322;22628;-79
2021/11/26 17:09:50;;;;;;;80.90;39.20;;;;;;;1.01;87.27;96483.80;215884;1322;22700;-80
2021/11/26 17:14:52;;;;;;;82.60;39.30;;;;;;;1.00;87.13;96485.34;215824;1322;22782;-79
2021/11/26 17:19:54;;;;;;;88.10;40.70;;;;;;;0.99;87.06;96478.45;215919;1321;22608;-79
2021/11/26 17:24:57;;;;;;;83.00;36.30;;;;;;;0.98;87.14;96469.45;216041;1320;22523;-79
2021/11/26 17:29:59;;;;;;;82.30;38.50;;;;;;;1.01;87.50;96467.36;215956;1322;22679;-79
2021/11/26 17:35:02;;;;;;;75.30;36.00;;;;;;;1.03;87.57;96463.27;215701;1322;22538;-79
2021/11/26 17:40:07;;;;;;;75.00;36.30;;;;;;;1.03;87.60;96458.01;215488;1325;22774;-79
2021/11/26 17:45:09;;;;;;;74.20;35.00;;;;;;;1.02;87.37;96445.80;215660;1321;25394;-79
2021/11/26 17:50:12;;;;;;;72.40;36.00;;;;;;;0.95;87.11;96436.80;215668;1323;25397;-79
2021/11/26 17:55:28;;;;;;;77.90;36.40;;;;;;;0.94;87.47;96428.54;215191;1325;22574;-79
2021/11/26 18:00:47;;;;;;;74.70;35.40;;;;;;;0.93;87.45;96421.96;215173;1322;22593;-78
2021/11/26 18:06:00;;;;;;;79.50;39.10;;;;;;;0.91;87.65;96416.77;214654;1324;22678;-77
2021/11/26 18:11:21;;;;;;;89.30;39.10;;;;;;;0.88;87.39;96408.47;215007;1322;25281;-77
2021/11/26 18:16:37;;;;;;;88.00;40.30;;;;;;;0.88;87.61;96401.67;214764;1323;22672;-77
2021/11/26 18:21:39;;;;;;;89.50;41.70;;;;;;;0.89;87.76;96397.45;215163;1320;22595;-77
2021/11/26 18:26:41;;;;;;;88.60;38.60;;;;;;;0.87;87.84;96395.61;214890;1321;23992;-77
2021/11/26 18:31:43;;;;;;;91.40;39.10;;;;;;;0.90;88.14;96397.00;214740;1322;23696;-77
2021/11/26 18:36:45;;;;;;;83.20;35.40;;;;;;;0.91;88.07;96397.67;214675;1322;24309;-77
2021/11/26 18:41:49;;;;;;;85.30;37.10;;;;;;;0.91;88.01;96394.88;215114;1322;22778;-77
2021/11/26 18:46:56;;;;;;;89.20;40.00;;;;;;;0.92;88.44;96390.86;215035;1322;23887;-77
2021/11/26 18:52:00;;;;;;;100.10;45.30;;;;;;;0.88;88.14;96388.17;215114;1320;22516;-78
2021/11/26 18:57:03;;;;;;;99.70;41.70;;;;;;;0.84;88.05;96387.86;215230;1322;25427;-77
2021/11/26 19:02:05;;;;;;;95.10;40.60;;;;;;;0.78;88.04;96379.98;215637;1320;22636;-78
2021/11/26 19:07:07;;;;;;;89.80;38.80;;;;;;;0.76;88.20;96375.04;215300;1322;22641;-78
2021/11/26 19:12:10;;;;;;;79.30;36.40;;;;;;;0.79;88.50;96373.27;215277;1322;22727;-78
2021/11/26 19:17:12;;;;;;;82.80;36.70;;;;;;;0.83;88.51;96368.66;215182;1322;23293;-78
2021/11/26 19:22:14;;;;;;;85.80;36.60;;;;;;;0.85;88.65;96368.43;216669;1324;22513;-77
2021/11/26 19:27:17;;;;;;;78.10;33.70;;;;;;;0.86;88.60;96362.11;215703;1322;26036;-77
2021/11/26 19:32:19;;;;;;;79.70;37.00;;;;;;;0.87;88.53;96356.97;217079;1322;22650;-77
2021/11/26 19:37:21;;;;;;;80.30;35.70;;;;;;;0.87;88.70;96356.98;216993;1321;24661;-77
2021/11/26 19:42:24;;;;;;;74.00;34.20;;;;;;;0.88;88.44;96349.38;215922;1322;22549;-77
2021/11/26 19:47:26;;;;;;;80.30;37.30;;;;;;;0.85;88.40;96350.31;216707;1322;24323;-76
2021/11/26 19:52:29;;;;;;;85.40;36.90;;;;;;;0.86;88.63;96350.23;216594;1321;23158;-77
2021/11/26 19:57:32;;;;;;;83.40;36.40;;;;;;;0.86;88.50;96346.81;216360;1322;25433;-77
2021/11/26 20:02:34;;;;;;;85.10;35.70;;;;;;;0.82;88.39;96346.02;215301;1322;23846;-77
2021/11/26 20:07:37;;;;;;;84.60;36.30;;;;;;;0.84;88.88;96345.98;215683;1322;22500;-77
2021/11/26 20:12:40;;;;;;;75.80;34.30;;;;;;;0.83;88.70;96346.23;216004;1322;24773;-78
2021/11/26 20:17:43;;;;;;;88.30;40.00;;;;;;;0.77;88.50;96346.62;216136;1322;22601;-76
2021/11/26 20:22:45;;;;;;;87.60;39.30;;;;;;;0.76;88.75;96344.16;216252;1322;22634;-77
2021/11/26 20:27:48;;;;;;;79.80;34.50;;;;;;;0.77;88.90;96335.23;215473;1320;22751;-77
2021/11/26 20:32:51;;;;;;;75.70;33.40;;;;;;;0.74;88.74;96330.05;215965;1322;22566;-76
2021/11/26 20:37:55;;;;;;;73.00;32.80;;;;;;;0.74;89.02;96321.62;215835;1322;22663;-78
2021/11/26 20:43:02;;;;;;;62.80;29.80;;;;;;;0.74;88.98;96316.25;215517;1320;24725;-76
2021/11/26 20:48:04;;;;;;;56.20;25.60;;;;;;;0.72;88.78;96313.63;215005;1322;22655;-75
2021/11/26 20:53:07;;;;;;;55.10;25.20;;;;;;;0.67;88.87;96311.17;214963;1321;22540;-77
2021/11/26 20:58:09;;;;;;;62.10;28.30;;;;;;;0.64;88.93;96308.17;214956;1322;22642;-77
2021/11/26 21:03:11;;;;;;;57.80;26.80;;;;;;;0.62;89.43;96310.98;214736;1322;22618;-75
2021/11/26 21:08:14;;;;;;;60.40;28.70;;;;;;;0.59;89.03;96315.08;214956;1322;110838;-75
2021/11/26 21:13:16;;;;;;;57.40;26.60;;;;;;;0.62;89.44;96311.15;215157;1321;22609;-77
2021/11/26 21:18:26;;;;;;;51.30;22.50;;;;;;;0.63;89.40;96312.86;215024;1317;25400;-77
2021/11/26 21:23:28;;;;;;;55.10;26.20;;;;;;;0.62;89.37;96305.23;214936;1320;24283;-76
2021/11/26 21:28:33;;;;;;;57.20;26.50;;;;;;;0.62;89.23;96302.34;215100;1322;22607;-77
2021/11/26 21:33:36;;;;;;;57.40;27.10;;;;;;;0.63;89.71;96305.16;214851;1321;22524;-76
2021/11/26 21:38:39;;;;;;;55.60;26.50;;;;;;;0.60;89.44;96302.25;215011;1321;22624;-78
2021/11/26 21:43:41;;;;;;;59.60;26.50;;;;;;;0.58;89.52;96300.34;214604;1325;22658;-76
2021/11/26 21:48:43;;;;;;;52.90;24.00;;;;;;;0.58;89.43;96298.33;214968;1320;22615;-76
2021/11/26 21:53:46;;;;;;;59.60;25.50;;;;;;;0.58;89.44;96298.23;215114;1316;23907;-76
2021/11/26 21:58:49;;;;;;;50.20;24.40;;;;;;;0.56;89.59;96301.04;214533;1323;24264;-76
2021/11/26 22:04:05;;;;;;;49.40;22.00;;;;;;;0.53;89.57;96302.25;214420;1316;24282;-76
2021/11/26 22:09:13;;;;;;;42.30;20.20;;;;;;;0.51;89.46;96305.48;214553;1324;22669;-76
2021/11/26 22:14:15;;;;;;;53.10;23.60;;;;;;;0.51;89.57;96311.58;214596;1325;22593;-76
2021/11/26 22:19:17;;;;;;;42.30;21.70;;;;;;;0.50;89.61;96317.09;214730;1322;23217;-78
2021/11/26 22:24:21;;;;;;;52.70;24.20;;;;;;;0.51;89.90;96325.04;215146;1316;25223;-77
2021/11/26 22:29:23;;;;;;;48.30;24.90;;;;;;;0.55;90.00;96330.52;214778;1320;22615;-76
2021/11/26 22:34:25;;;;;;;52.90;24.50;;;;;;;0.59;90.50;96330.67;214971;1321;24010;-76
2021/11/26 22:39:30;;;;;;;48.50;22.70;;;;;;;0.60;89.96;96325.92;215067;1320;22752;-76
2021/11/26 22:44:38;;;;;;;42.30;21.60;;;;;;;0.57;90.18;96328.33;214901;1321;23754;-77
2021/11/26 22:49:41;;;;;;;47.30;22.70;;;;;;;0.56;90.08;96333.71;214675;1322;25898;-77
2021/11/26 22:54:43;;;;;;;44.30;20.80;;;;;;;0.57;90.07;96331.23;214918;1321;24834;-76
2021/11/26 22:59:46;;;;;;;44.30;21.20;;;;;;;0.54;89.86;96337.33;214705;1322;24228;-76
2021/11/26 23:04:49;;;;;;;36.30;18.30;;;;;;;0.56;90.38;96343.42;215085;1321;24187;-76
2021/11/26 23:09:57;;;;;;;46.00;21.90;;;;;;;0.58;90.24;96348.86;214763;1321;22597;-76
2021/11/26 23:14:59;;;;;;;39.00;19.00;;;;;;;0.61;90.24;96357.84;215071;1321;22601;-76
2021/11/26 23:20:02;;;;;;;45.50;21.60;;;;;;;0.60;90.33;96359.43;214871;1322;22638;-76
2021/11/26 23:25:05;;;;;;;46.50;21.50;;;;;;;0.59;89.98;96360.13;214797;1320;22602;-76
2021/11/26 23:30:15;;;;;;;46.60;20.90;;;;;;;0.60;90.34;96365.70;214683;1321;24215;-76
2021/11/26 23:35:17;;;;;;;;;;;;;;;0.62;90.33;96364.30;215254;1322;22776;-76
2021/11/26 23:40:25;;;;;;;44.80;20.50;;;;;;;0.58;90.36;96365.93;215175;1321;25949;-76